createdAt,value
2022-11-08T00:00:25.940Z,1.08
2022-11-08T00:01:30.020Z,1.13
2022-11-08T00:02:33.159Z,1.09
2022-11-08T00:03:36.019Z,1.09
2022-11-08T00:04:38.755Z,1.22
2022-11-08T00:05:41.932Z,1.02
2022-11-08T00:06:44.933Z,1.16
2022-11-08T00:07:48.313Z,1.03
2022-11-08T00:08:51.289Z,1.01
2022-11-08T00:09:54.463Z,0.80
2022-11-08T00:10:57.562Z,0.91
2022-11-08T00:12:00.626Z,1.05
2022-11-08T00:13:04.106Z,0.92
2022-11-08T00:14:07.292Z,0.85
2022-11-08T00:15:10.375Z,0.86
2022-11-08T00:16:14.072Z,0.90
2022-11-08T00:17:16.936Z,1.05
2022-11-08T00:18:20.322Z,0.88
2022-11-08T00:19:23.615Z,0.85
2022-11-08T00:20:26.792Z,1.07
2022-11-08T00:21:30.295Z,0.95
2022-11-08T00:22:32.954Z,0.98
2022-11-08T00:23:36.035Z,0.88
2022-11-08T00:24:39.006Z,1.08
2022-11-08T00:25:42.085Z,0.82
2022-11-08T00:26:44.965Z,0.82
2022-11-08T00:27:47.848Z,0.77
2022-11-08T00:28:51.243Z,0.73
2022-11-08T00:29:54.201Z,0.85
2022-11-08T00:30:57.480Z,0.80
2022-11-08T00:32:00.470Z,1.04
2022-11-08T00:33:03.546Z,1.13
2022-11-08T00:34:06.616Z,0.99
2022-11-08T00:35:09.804Z,1.14
2022-11-08T00:36:13.100Z,1.19
2022-11-08T00:37:16.271Z,1.02
2022-11-08T00:38:19.882Z,1.08
2022-11-08T00:39:23.759Z,1.01
2022-11-08T00:40:27.762Z,0.92
2022-11-08T00:41:30.943Z,0.98
2022-11-08T00:42:33.813Z,1.16
2022-11-08T00:43:36.994Z,0.98
2022-11-08T00:44:40.396Z,1.28
2022-11-08T00:45:43.456Z,1.05
2022-11-08T00:46:46.344Z,0.98
2022-11-08T00:47:49.520Z,1.19
2022-11-08T00:48:52.498Z,1.24
2022-11-08T00:49:55.677Z,1.22
2022-11-08T00:50:59.391Z,0.98
2022-11-08T00:52:02.458Z,0.97
2022-11-08T00:53:06.050Z,0.78
2022-11-08T00:54:09.123Z,1.24
2022-11-08T00:55:12.301Z,1.19
2022-11-08T00:56:15.392Z,1.18
2022-11-08T00:57:18.165Z,1.28
2022-11-08T00:58:24.919Z,0.98
2022-11-08T00:59:25.436Z,1.24
2022-11-08T01:00:28.524Z,1.05
2022-11-08T01:01:31.825Z,1.08
2022-11-08T01:02:34.750Z,1.38
2022-11-08T01:03:37.666Z,1.17
2022-11-08T01:04:40.528Z,1.21
2022-11-08T01:05:44.228Z,1.42
2022-11-08T01:06:47.313Z,1.26
2022-11-08T01:07:50.593Z,1.28
2022-11-08T01:08:53.572Z,1.26
2022-11-08T01:09:56.644Z,1.12
2022-11-08T01:10:59.841Z,1.16
2022-11-08T01:12:03.002Z,1.21
2022-11-08T01:13:05.883Z,1.35
2022-11-08T01:14:08.964Z,1.12
2022-11-08T01:15:12.221Z,1.15
2022-11-08T01:16:15.229Z,0.99
2022-11-08T01:17:18.219Z,1.17
2022-11-08T01:18:21.780Z,1.05
2022-11-08T01:19:25.401Z,1.20
2022-11-08T01:20:29.907Z,1.25
2022-11-08T01:21:33.084Z,1.13
2022-11-08T01:22:36.160Z,1.24
2022-11-08T01:23:39.163Z,1.04
2022-11-08T01:24:42.215Z,1.18
2022-11-08T01:25:45.296Z,1.05
2022-11-08T01:26:48.177Z,1.09
2022-11-08T01:27:51.452Z,1.11
2022-11-08T01:28:54.535Z,1.05
2022-11-08T01:29:57.513Z,1.18
2022-11-08T01:31:00.264Z,1.02
2022-11-08T01:32:03.459Z,0.92
2022-11-08T01:33:06.855Z,1.10
2022-11-08T01:34:10.137Z,1.18
2022-11-08T01:35:13.433Z,1.25
2022-11-08T01:36:16.804Z,1.31
2022-11-08T01:37:19.981Z,1.28
2022-11-08T01:38:22.854Z,1.02
2022-11-08T01:39:25.940Z,0.99
2022-11-08T01:40:28.826Z,1.10
2022-11-08T01:41:31.792Z,1.13
2022-11-08T01:42:35.194Z,1.05
2022-11-08T01:43:37.974Z,1.02
2022-11-08T01:44:40.929Z,1.25
2022-11-08T01:45:44.014Z,1.08
2022-11-08T01:46:47.082Z,1.22
2022-11-08T01:47:50.576Z,1.27
2022-11-08T01:48:53.363Z,1.03
2022-11-08T01:49:56.322Z,1.10
2022-11-08T01:50:59.415Z,1.38
2022-11-08T01:52:02.274Z,1.18
2022-11-08T01:53:05.458Z,1.27
2022-11-08T01:54:08.535Z,1.16
2022-11-08T01:55:11.616Z,1.26
2022-11-08T01:56:14.497Z,1.19
2022-11-08T01:57:17.777Z,1.52
2022-11-08T01:58:20.834Z,0.99
2022-11-08T01:59:23.734Z,1.22
2022-11-08T02:00:26.533Z,1.19
2022-11-08T02:01:29.667Z,1.32
2022-11-08T02:02:32.515Z,1.53
2022-11-08T02:03:35.246Z,1.07
2022-11-08T02:04:38.110Z,1.35
2022-11-08T02:05:41.081Z,1.20
2022-11-08T02:06:43.752Z,0.98
2022-11-08T02:07:46.633Z,0.88
2022-11-08T02:08:49.603Z,0.92
2022-11-08T02:09:52.788Z,1.01
2022-11-08T02:10:55.863Z,0.97
2022-11-08T02:11:59.366Z,1.18
2022-11-08T02:13:05.403Z,1.32
2022-11-08T02:14:08.281Z,0.99
2022-11-08T02:15:11.261Z,0.92
2022-11-08T02:16:14.240Z,1.14
2022-11-08T02:17:17.227Z,1.12
2022-11-08T02:18:20.895Z,1.12
2022-11-08T02:19:24.192Z,1.02
2022-11-08T02:20:26.961Z,0.95
2022-11-08T02:21:29.947Z,1.01
2022-11-08T02:22:32.710Z,1.05
2022-11-08T02:23:35.990Z,1.19
2022-11-08T02:24:39.185Z,1.02
2022-11-08T02:25:42.263Z,0.95
2022-11-08T02:26:45.336Z,0.90
2022-11-08T02:27:48.930Z,0.95
2022-11-08T02:28:52.109Z,1.16
2022-11-08T02:29:55.393Z,1.19
2022-11-08T02:30:58.779Z,1.20
2022-11-08T02:32:02.067Z,1.11
2022-11-08T02:33:04.832Z,1.13
2022-11-08T02:34:07.911Z,1.22
2022-11-08T02:35:11.320Z,1.10
2022-11-08T02:36:14.590Z,0.98
2022-11-08T02:37:17.679Z,1.14
2022-11-08T02:38:21.253Z,1.23
2022-11-08T02:39:24.534Z,1.09
2022-11-08T02:40:27.728Z,1.14
2022-11-08T02:41:30.702Z,1.14
2022-11-08T02:42:33.580Z,0.98
2022-11-08T02:43:36.547Z,1.20
2022-11-08T02:44:39.325Z,1.12
2022-11-08T02:45:42.307Z,0.97
2022-11-08T02:46:45.284Z,1.19
2022-11-08T02:47:48.255Z,1.15
2022-11-08T02:48:51.029Z,1.22
2022-11-08T02:49:53.895Z,0.98
2022-11-08T02:50:57.397Z,1.02
2022-11-08T02:52:00.568Z,1.04
2022-11-08T02:53:03.652Z,1.05
2022-11-08T02:54:06.538Z,0.99
2022-11-08T02:55:09.810Z,1.09
2022-11-08T02:56:13.412Z,1.11
2022-11-08T02:57:16.480Z,1.08
2022-11-08T02:58:20.156Z,0.88
2022-11-08T02:59:23.258Z,0.96
2022-11-08T03:00:26.233Z,1.14
2022-11-08T03:01:29.277Z,1.24
2022-11-08T03:02:32.742Z,1.12
2022-11-08T03:03:35.678Z,1.12
2022-11-08T03:04:38.750Z,1.02
2022-11-08T03:05:42.140Z,1.06
2022-11-08T03:06:45.421Z,0.90
2022-11-08T03:07:48.505Z,1.00
2022-11-08T03:08:51.905Z,0.92
2022-11-08T03:09:55.213Z,1.14
2022-11-08T03:10:58.359Z,1.00
2022-11-08T03:12:01.846Z,1.03
2022-11-08T03:13:04.624Z,1.06
2022-11-08T03:14:09.245Z,0.97
2022-11-08T03:15:12.211Z,1.01
2022-11-08T03:16:14.978Z,0.93
2022-11-08T03:17:17.955Z,0.87
2022-11-08T03:18:21.082Z,0.93
2022-11-08T03:19:24.632Z,0.90
2022-11-08T03:20:32.507Z,0.92
2022-11-08T03:21:32.119Z,0.94
2022-11-08T03:22:35.507Z,1.18
2022-11-08T03:23:38.379Z,1.07
2022-11-08T03:24:41.361Z,1.03
2022-11-08T03:25:44.460Z,1.06
2022-11-08T03:26:47.218Z,0.97
2022-11-08T03:27:50.292Z,0.95
2022-11-08T03:28:53.173Z,1.26
2022-11-08T03:29:57.169Z,1.09
2022-11-08T03:31:00.240Z,1.11
2022-11-08T03:32:03.531Z,1.04
2022-11-08T03:33:06.914Z,1.21
2022-11-08T03:34:09.896Z,1.06
2022-11-08T03:35:14.538Z,1.12
2022-11-08T03:36:17.614Z,1.14
2022-11-08T03:37:20.355Z,1.03
2022-11-08T03:38:24.265Z,0.95
2022-11-08T03:39:29.182Z,1.12
2022-11-08T03:40:32.052Z,0.91
2022-11-08T03:41:34.823Z,1.12
2022-11-08T03:42:38.536Z,1.18
2022-11-08T03:43:42.118Z,1.03
2022-11-08T03:44:45.412Z,1.20
2022-11-08T03:45:48.787Z,1.08
2022-11-08T03:46:51.757Z,1.15
2022-11-08T03:47:54.650Z,1.10
2022-11-08T03:48:57.818Z,0.75
2022-11-08T03:50:02.151Z,1.17
2022-11-08T03:51:05.107Z,0.98
2022-11-08T03:52:08.169Z,1.03
2022-11-08T03:53:10.954Z,1.18
2022-11-08T03:54:13.825Z,0.93
2022-11-08T03:55:17.212Z,0.92
2022-11-08T03:56:20.084Z,1.04
2022-11-08T03:57:23.065Z,1.11
2022-11-08T03:58:26.144Z,1.19
2022-11-08T03:59:30.552Z,1.02
2022-11-08T04:00:33.441Z,1.06
2022-11-08T04:01:36.656Z,0.88
2022-11-08T04:02:39.579Z,1.02
2022-11-08T04:03:42.478Z,0.94
2022-11-08T04:04:45.438Z,1.05
2022-11-08T04:05:48.417Z,0.74
2022-11-08T04:06:52.323Z,0.93
2022-11-08T04:07:55.294Z,1.23
2022-11-08T04:08:58.166Z,1.18
2022-11-08T04:10:01.454Z,1.08
2022-11-08T04:11:04.336Z,1.13
2022-11-08T04:12:07.204Z,1.23
2022-11-08T04:13:10.691Z,1.12
2022-11-08T04:14:14.282Z,0.92
2022-11-08T04:15:17.487Z,0.80
2022-11-08T04:16:20.193Z,0.88
2022-11-08T04:17:23.939Z,1.10
2022-11-08T04:18:27.109Z,1.09
2022-11-08T04:19:30.201Z,1.04
2022-11-08T04:20:33.682Z,1.08
2022-11-08T04:21:37.168Z,0.92
2022-11-08T04:22:40.139Z,0.91
2022-11-08T04:23:43.424Z,1.08
2022-11-08T04:24:46.308Z,1.02
2022-11-08T04:25:50.005Z,1.11
2022-11-08T04:26:52.987Z,1.12
2022-11-08T04:27:56.161Z,1.21
2022-11-08T04:28:59.759Z,1.09
2022-11-08T04:30:03.245Z,1.04
2022-11-08T04:31:06.635Z,0.84
2022-11-08T04:32:10.008Z,1.07
2022-11-08T04:33:13.195Z,1.04
2022-11-08T04:34:16.253Z,1.15
2022-11-08T04:35:19.250Z,1.30
2022-11-08T04:36:22.743Z,1.10
2022-11-08T04:37:25.709Z,1.23
2022-11-08T04:38:28.482Z,1.14
2022-11-08T04:39:31.267Z,0.85
2022-11-08T04:40:34.132Z,0.94
2022-11-08T04:41:37.320Z,1.09
2022-11-08T04:42:40.083Z,1.16
2022-11-08T04:43:42.958Z,1.02
2022-11-08T04:44:46.053Z,1.32
2022-11-08T04:45:49.022Z,1.11
2022-11-08T04:46:52.820Z,1.14
2022-11-08T04:47:55.788Z,0.99
2022-11-08T04:48:59.914Z,1.09
2022-11-08T04:50:02.982Z,1.06
2022-11-08T04:51:06.077Z,1.03
2022-11-08T04:52:09.231Z,1.37
2022-11-08T04:53:12.843Z,1.50
2022-11-08T04:54:15.901Z,1.00
2022-11-08T04:55:18.785Z,1.17
2022-11-08T04:56:22.062Z,1.12
2022-11-08T04:57:24.943Z,1.20
2022-11-08T04:58:27.616Z,1.00
2022-11-08T04:59:30.383Z,0.94
2022-11-08T05:00:33.372Z,0.96
2022-11-08T05:01:36.401Z,1.01
2022-11-08T05:02:39.537Z,1.03
2022-11-08T05:03:42.497Z,0.97
2022-11-08T05:04:46.908Z,1.02
2022-11-08T05:05:50.808Z,1.06
2022-11-08T05:06:53.825Z,0.94
2022-11-08T05:07:57.001Z,1.18
2022-11-08T05:09:00.264Z,1.12
2022-11-08T05:10:03.222Z,1.11
2022-11-08T05:11:05.998Z,1.07
2022-11-08T05:12:08.871Z,0.96
2022-11-08T05:13:13.899Z,0.92
2022-11-08T05:14:17.181Z,1.01
2022-11-08T05:15:20.164Z,0.86
2022-11-08T05:16:23.061Z,1.08
2022-11-08T05:17:25.907Z,1.03
2022-11-08T05:18:29.198Z,1.25
2022-11-08T05:19:32.587Z,1.03
2022-11-08T05:20:35.561Z,1.05
2022-11-08T05:21:38.327Z,1.08
2022-11-08T05:22:42.239Z,1.16
2022-11-08T05:23:45.415Z,1.23
2022-11-08T05:24:48.491Z,1.02
2022-11-08T05:25:51.360Z,1.23
2022-11-08T05:26:54.237Z,0.98
2022-11-08T05:27:57.124Z,1.43
2022-11-08T05:28:59.788Z,1.03
2022-11-08T05:30:02.863Z,1.02
2022-11-08T05:31:06.141Z,1.11
2022-11-08T05:32:09.120Z,1.14
2022-11-08T05:33:12.407Z,1.02
2022-11-08T05:34:15.591Z,1.12
2022-11-08T05:35:18.572Z,1.23
2022-11-08T05:36:21.853Z,1.22
2022-11-08T05:37:24.831Z,0.95
2022-11-08T05:38:28.210Z,1.10
2022-11-08T05:39:32.360Z,1.11
2022-11-08T05:40:35.820Z,1.12
2022-11-08T05:41:38.600Z,1.13
2022-11-08T05:42:41.251Z,1.08
2022-11-08T05:43:44.636Z,1.25
2022-11-08T05:44:47.823Z,1.15
2022-11-08T05:45:51.006Z,1.00
2022-11-08T05:46:54.387Z,1.08
2022-11-08T05:47:57.455Z,0.92
2022-11-08T05:49:01.008Z,0.99
2022-11-08T05:50:04.345Z,0.96
2022-11-08T05:51:07.830Z,1.01
2022-11-08T05:52:11.223Z,1.12
2022-11-08T05:53:14.096Z,1.00
2022-11-08T05:54:17.382Z,1.16
2022-11-08T05:55:20.975Z,1.04
2022-11-08T05:56:23.951Z,1.16
2022-11-08T05:57:26.814Z,1.06
2022-11-08T05:58:29.585Z,0.93
2022-11-08T05:59:32.575Z,1.18
2022-11-08T06:00:35.642Z,1.04
2022-11-08T06:01:39.378Z,1.20
2022-11-08T06:02:42.575Z,1.24
2022-11-08T06:03:45.913Z,1.02
2022-11-08T06:04:48.680Z,1.00
2022-11-08T06:05:51.786Z,1.04
2022-11-08T06:06:54.949Z,1.29
2022-11-08T06:07:57.825Z,1.12
2022-11-08T06:09:01.515Z,0.99
2022-11-08T06:10:04.694Z,1.04
2022-11-08T06:11:08.083Z,1.03
2022-11-08T06:12:11.577Z,1.25
2022-11-08T06:13:14.643Z,1.22
2022-11-08T06:14:17.829Z,1.26
2022-11-08T06:15:21.125Z,0.81
2022-11-08T06:16:24.709Z,1.18
2022-11-08T06:17:33.213Z,1.05
2022-11-08T06:18:37.950Z,1.02
2022-11-08T06:19:49.017Z,1.11
2022-11-08T06:21:01.399Z,1.05
2022-11-08T06:22:04.472Z,1.06
2022-11-08T06:23:07.550Z,1.09
2022-11-08T06:24:10.547Z,0.95
2022-11-08T06:25:13.817Z,0.98
2022-11-08T06:26:19.815Z,1.15
2022-11-08T06:27:23.569Z,1.22
2022-11-08T06:28:26.541Z,1.11
2022-11-08T06:29:29.513Z,1.12
2022-11-08T06:30:32.595Z,1.06
2022-11-08T06:31:39.303Z,1.02
2022-11-08T06:32:40.082Z,1.33
2022-11-08T06:33:43.059Z,1.24
2022-11-08T06:34:54.078Z,1.05
2022-11-08T06:35:57.400Z,0.95
2022-11-08T06:37:02.333Z,1.06
2022-11-08T06:38:09.341Z,1.26
2022-11-08T06:39:15.950Z,0.99
2022-11-08T06:40:19.046Z,0.98
2022-11-08T06:41:22.013Z,1.03
2022-11-08T06:42:25.828Z,1.30
2022-11-08T06:43:29.930Z,1.24
2022-11-08T06:44:33.617Z,1.05
2022-11-08T06:45:37.619Z,0.96
2022-11-08T06:46:40.995Z,1.10
2022-11-08T06:47:44.701Z,0.95
2022-11-08T06:48:47.674Z,0.98
2022-11-08T06:49:50.656Z,1.17
2022-11-08T06:50:54.014Z,0.99
2022-11-08T06:51:58.572Z,0.94
2022-11-08T06:53:02.048Z,1.09
2022-11-08T06:54:08.458Z,1.21
2022-11-08T06:55:10.674Z,1.12
2022-11-08T06:56:13.849Z,1.10
2022-11-08T06:57:16.709Z,1.33
2022-11-08T06:58:19.588Z,0.96
2022-11-08T06:59:22.663Z,1.02
2022-11-08T07:00:26.266Z,1.02
2022-11-08T07:01:29.852Z,1.29
2022-11-08T07:02:32.718Z,1.51
2022-11-08T07:03:37.959Z,1.85
2022-11-08T07:04:48.700Z,1.56
2022-11-08T07:05:53.971Z,1.42
2022-11-08T07:07:07.996Z,1.17
2022-11-08T07:08:11.881Z,1.13
2022-11-08T07:09:14.975Z,1.26
2022-11-08T07:10:18.344Z,1.25
2022-11-08T07:12:45.506Z,1.01
2022-11-08T07:13:48.295Z,1.07
2022-11-08T07:14:51.956Z,0.92
2022-11-08T07:15:55.446Z,1.04
2022-11-08T07:16:58.953Z,1.11
2022-11-08T07:18:03.225Z,1.13
2022-11-08T07:19:12.374Z,1.18
2022-11-08T07:20:15.421Z,1.08
2022-11-08T07:21:18.938Z,0.92
2022-11-08T07:22:22.354Z,1.15
2022-11-08T07:23:25.105Z,1.15
2022-11-08T07:24:27.970Z,1.22
2022-11-08T07:25:31.043Z,1.06
2022-11-08T07:26:34.547Z,1.22
2022-11-08T07:27:37.846Z,1.01
2022-11-08T07:28:40.945Z,0.91
2022-11-08T07:29:43.668Z,0.98
2022-11-08T07:30:51.396Z,1.14
2022-11-08T07:32:08.135Z,1.03
2022-11-08T07:33:11.183Z,1.04
2022-11-08T07:34:14.541Z,1.11
2022-11-08T07:35:17.908Z,1.09
2022-11-08T07:36:21.303Z,1.27
2022-11-08T07:37:28.579Z,0.92
2022-11-08T07:38:31.666Z,1.16
2022-11-08T07:39:35.351Z,1.46
2022-11-08T07:40:38.531Z,1.00
2022-11-08T07:41:42.336Z,1.18
2022-11-08T07:43:58.390Z,1.29
2022-11-08T07:45:05.090Z,1.30
2022-11-08T07:46:08.702Z,1.31
2022-11-08T07:47:11.354Z,1.32
2022-11-08T07:48:16.215Z,1.54
2022-11-08T07:49:19.046Z,1.49
2022-11-08T07:50:22.168Z,1.54
2022-11-08T07:51:25.315Z,1.30
2022-11-08T07:52:34.863Z,1.43
2022-11-08T07:53:39.563Z,1.34
2022-11-08T07:54:42.327Z,1.38
2022-11-08T07:55:49.306Z,1.45
2022-11-08T07:56:52.270Z,1.24
2022-11-08T07:57:55.563Z,1.23
2022-11-08T07:58:58.638Z,1.06
2022-11-08T08:00:13.150Z,1.28
2022-11-08T08:01:16.468Z,1.53
2022-11-08T08:02:19.382Z,1.50
2022-11-08T08:03:22.998Z,1.32
2022-11-08T08:04:26.730Z,1.34
2022-11-08T08:05:30.705Z,1.52
2022-11-08T08:06:34.952Z,1.42
2022-11-08T08:07:39.709Z,1.33
2022-11-08T08:08:45.462Z,1.30
2022-11-08T08:09:49.092Z,1.33
2022-11-08T08:12:25.512Z,1.42
2022-11-08T08:13:39.491Z,1.27
2022-11-08T08:14:50.051Z,1.28
2022-11-08T08:15:53.941Z,1.34
2022-11-08T08:16:57.126Z,1.49
2022-11-08T08:19:23.568Z,1.47
2022-11-08T08:21:48.265Z,1.43
2022-11-08T08:22:54.656Z,1.67
2022-11-08T08:25:18.810Z,1.64
2022-11-08T08:26:21.999Z,1.67
2022-11-08T08:27:25.474Z,1.72
2022-11-08T08:28:28.547Z,1.45
2022-11-08T08:29:44.747Z,1.51
2022-11-08T08:32:31.407Z,1.41
2022-11-08T08:33:33.525Z,1.36
2022-11-08T08:34:36.885Z,1.56
2022-11-08T08:35:39.762Z,1.54
2022-11-08T08:36:48.944Z,1.67
2022-11-08T08:37:54.120Z,1.36
2022-11-08T08:38:56.993Z,1.28
2022-11-08T08:41:20.474Z,1.26
2022-11-08T08:42:23.444Z,1.25
2022-11-08T08:43:27.130Z,1.49
2022-11-08T08:44:31.132Z,1.46
2022-11-08T08:45:44.641Z,1.44
2022-11-08T08:46:47.836Z,1.52
2022-11-08T08:50:33.052Z,1.40
2022-11-08T08:51:36.302Z,1.41
2022-11-08T08:52:39.254Z,1.42
2022-11-08T08:53:45.578Z,1.23
2022-11-08T08:54:48.759Z,1.42
2022-11-08T08:55:59.564Z,1.30
2022-11-08T08:57:16.148Z,1.22
2022-11-08T08:58:20.077Z,1.22
2022-11-08T09:01:38.891Z,1.30
2022-11-08T09:02:48.814Z,1.28
2022-11-08T09:04:09.282Z,1.40
2022-11-08T09:06:32.811Z,1.71
2022-11-08T09:07:48.496Z,1.45
2022-11-08T09:10:13.529Z,1.82
2022-11-08T09:11:16.586Z,1.78
2022-11-08T09:12:27.341Z,1.59
2022-11-08T09:13:34.823Z,1.46
2022-11-08T09:14:42.926Z,1.62
2022-11-08T09:15:55.106Z,1.53
2022-11-08T09:18:37.134Z,1.37
2022-11-08T09:19:40.381Z,1.57
2022-11-08T09:20:52.815Z,1.54
2022-11-08T09:25:21.702Z,1.71
2022-11-08T09:27:59.106Z,1.59
2022-11-08T09:29:02.066Z,1.36
2022-11-08T09:30:06.079Z,1.34
2022-11-08T09:31:16.125Z,1.52
2022-11-08T09:32:33.398Z,1.41
2022-11-08T09:33:24.360Z,1.34
2022-11-08T09:34:27.609Z,1.46
2022-11-08T09:35:30.916Z,1.70
2022-11-08T09:36:33.882Z,1.42
2022-11-08T09:37:36.958Z,1.46
2022-11-08T09:38:41.455Z,1.25
2022-11-08T09:39:46.693Z,1.51
2022-11-08T09:40:49.761Z,1.43
2022-11-08T09:41:55.497Z,1.47
2022-11-08T09:43:06.683Z,1.81
2022-11-08T09:44:15.120Z,1.76
2022-11-08T09:45:23.496Z,1.60
2022-11-08T09:46:31.236Z,1.40
2022-11-08T09:47:37.215Z,1.43
2022-11-08T09:48:40.307Z,1.63
2022-11-08T09:49:43.399Z,2.08
2022-11-08T09:50:46.694Z,1.52
2022-11-08T09:51:52.345Z,1.58
2022-11-08T09:54:19.520Z,1.56
2022-11-08T09:55:24.384Z,1.61
2022-11-08T09:56:28.490Z,1.41
2022-11-08T09:57:39.199Z,1.19
2022-11-08T09:58:41.703Z,1.43
2022-11-08T09:59:44.986Z,1.42
2022-11-08T10:00:48.087Z,1.18
2022-11-08T10:01:52.086Z,1.49
2022-11-08T10:02:55.466Z,1.43
2022-11-08T10:03:58.320Z,1.46
2022-11-08T10:05:01.551Z,1.97
2022-11-08T10:06:05.213Z,1.73
2022-11-08T10:07:08.243Z,1.26
2022-11-08T10:08:12.096Z,1.53
2022-11-08T10:09:15.782Z,1.36
2022-11-08T10:10:18.855Z,1.32
2022-11-08T10:11:22.550Z,1.26
2022-11-08T10:12:26.050Z,1.42
2022-11-08T10:13:29.231Z,1.64
2022-11-08T10:14:33.987Z,1.50
2022-11-08T10:15:38.350Z,1.47
2022-11-08T10:16:41.439Z,1.35
2022-11-08T10:17:47.274Z,1.29
2022-11-08T10:18:50.757Z,1.35
2022-11-08T10:19:54.063Z,1.29
2022-11-08T10:20:57.292Z,1.58
2022-11-08T10:22:00.723Z,1.49
2022-11-08T10:23:03.692Z,1.45
2022-11-08T10:24:10.877Z,1.38
2022-11-08T10:25:15.186Z,1.50
2022-11-08T10:26:26.893Z,1.32
2022-11-08T10:27:27.283Z,1.38
2022-11-08T10:28:30.144Z,1.51
2022-11-08T10:29:33.443Z,1.22
2022-11-08T10:30:36.116Z,1.66
2022-11-08T10:31:39.184Z,1.38
2022-11-08T10:32:45.582Z,1.45
2022-11-08T10:33:48.213Z,1.42
2022-11-08T10:34:51.103Z,1.36
2022-11-08T10:35:57.810Z,1.33
2022-11-08T10:36:59.099Z,1.74
2022-11-08T10:38:02.368Z,1.70
2022-11-08T10:39:05.349Z,1.72
2022-11-08T10:40:08.633Z,1.55
2022-11-08T10:41:11.511Z,1.61
2022-11-08T10:42:14.387Z,1.58
2022-11-08T10:43:17.728Z,1.40
2022-11-08T10:44:20.638Z,1.64
2022-11-08T10:45:23.720Z,1.45
2022-11-08T10:46:26.950Z,1.62
2022-11-08T10:47:30.302Z,1.72
2022-11-08T10:48:33.073Z,1.49
2022-11-08T10:49:36.352Z,1.44
2022-11-08T10:50:39.127Z,1.64
2022-11-08T10:51:43.126Z,1.54
2022-11-08T10:52:50.809Z,1.46
2022-11-08T10:53:53.509Z,1.50
2022-11-08T10:54:59.732Z,1.36
2022-11-08T10:56:02.706Z,1.50
2022-11-08T10:57:05.801Z,1.46
2022-11-08T10:58:08.572Z,1.28
2022-11-08T10:59:11.745Z,1.70
2022-11-08T11:00:14.621Z,1.75
2022-11-08T11:01:18.361Z,1.58
2022-11-08T11:02:21.256Z,1.68
2022-11-08T11:03:24.475Z,1.88
2022-11-08T11:04:27.458Z,1.52
2022-11-08T11:05:30.215Z,1.59
2022-11-08T11:06:33.136Z,1.65
2022-11-08T11:07:35.778Z,1.59
2022-11-08T11:08:38.635Z,1.46
2022-11-08T11:09:42.044Z,1.53
2022-11-08T11:10:44.803Z,1.51
2022-11-08T11:11:47.706Z,1.68
2022-11-08T11:12:50.555Z,1.71
2022-11-08T11:13:53.642Z,1.55
2022-11-08T11:14:56.803Z,1.80
2022-11-08T11:16:05.555Z,1.78
2022-11-08T11:17:08.302Z,1.58
2022-11-08T11:18:11.390Z,1.62
2022-11-08T11:19:14.209Z,1.37
2022-11-08T11:20:17.434Z,1.82
2022-11-08T11:21:20.204Z,2.22
2022-11-08T11:22:23.594Z,1.74
2022-11-08T11:23:26.362Z,1.46
2022-11-08T11:24:29.642Z,1.48
2022-11-08T11:25:32.524Z,1.57
2022-11-08T11:26:35.553Z,1.60
2022-11-08T11:27:38.575Z,1.39
2022-11-08T11:28:41.555Z,1.33
2022-11-08T11:29:49.372Z,1.55
2022-11-08T11:30:53.641Z,1.70
2022-11-08T11:31:57.555Z,1.66
2022-11-08T11:33:01.494Z,1.44
2022-11-08T11:34:05.053Z,1.36
2022-11-08T11:35:08.331Z,1.50
2022-11-08T11:36:13.706Z,1.47
2022-11-08T11:37:16.121Z,1.71
2022-11-08T11:38:20.476Z,1.46
2022-11-08T11:39:24.021Z,1.48
2022-11-08T11:40:27.315Z,1.55
2022-11-08T11:41:30.825Z,1.77
2022-11-08T11:42:50.885Z,1.66
2022-11-08T11:43:40.376Z,1.50
2022-11-08T11:44:43.207Z,1.72
2022-11-08T11:45:46.074Z,1.70
2022-11-08T11:46:49.251Z,1.37
2022-11-08T11:47:52.457Z,1.45
2022-11-08T11:48:55.534Z,1.59
2022-11-08T11:50:06.898Z,1.39
2022-11-08T11:51:09.497Z,1.52
2022-11-08T11:52:12.331Z,1.74
2022-11-08T11:53:27.387Z,1.52
2022-11-08T11:54:30.060Z,1.65
2022-11-08T11:55:32.941Z,1.58
2022-11-08T11:56:35.723Z,1.72
2022-11-08T11:57:38.393Z,1.45
2022-11-08T11:58:40.948Z,1.66
2022-11-08T11:59:43.723Z,1.66
2022-11-08T12:00:46.609Z,1.58
2022-11-08T12:01:49.726Z,1.45
2022-11-08T12:02:52.660Z,1.61
2022-11-08T12:03:55.231Z,1.69
2022-11-08T12:04:58.420Z,1.57
2022-11-08T12:06:01.482Z,1.62
2022-11-08T12:07:05.661Z,1.62
2022-11-08T12:08:08.786Z,1.49
2022-11-08T12:09:11.453Z,1.53
2022-11-08T12:10:14.147Z,1.63
2022-11-08T12:11:18.834Z,1.44
2022-11-08T12:12:21.604Z,1.57
2022-11-08T12:13:24.159Z,1.67
2022-11-08T12:14:26.609Z,1.42
2022-11-08T12:15:28.999Z,1.72
2022-11-08T12:16:31.266Z,1.43
2022-11-08T12:17:33.727Z,1.47
2022-11-08T12:18:43.117Z,1.70
2022-11-08T12:19:45.422Z,1.56
2022-11-08T12:20:47.700Z,1.55
2022-11-08T12:21:49.944Z,1.58
2022-11-08T12:22:52.165Z,1.69
2022-11-08T12:23:54.645Z,1.86
2022-11-08T12:24:57.144Z,1.87
2022-11-08T12:25:59.654Z,2.02
2022-11-08T12:27:02.109Z,1.81
2022-11-08T12:28:04.774Z,1.48
2022-11-08T12:29:07.250Z,1.50
2022-11-08T12:30:09.783Z,1.82
2022-11-08T12:31:11.982Z,1.83
2022-11-08T12:32:14.449Z,1.94
2022-11-08T12:33:16.936Z,1.72
2022-11-08T12:34:19.455Z,2.07
2022-11-08T12:35:21.880Z,1.65
2022-11-08T12:36:24.374Z,1.89
2022-11-08T12:37:26.857Z,1.46
2022-11-08T12:38:31.208Z,1.74
2022-11-08T12:39:33.562Z,1.86
2022-11-08T12:40:36.106Z,1.88
2022-11-08T12:41:39.549Z,1.70
2022-11-08T12:42:41.812Z,1.86
2022-11-08T12:43:44.022Z,1.63
2022-11-08T12:44:49.128Z,1.70
2022-11-08T12:45:51.397Z,1.70
2022-11-08T12:46:53.665Z,1.64
2022-11-08T12:47:55.935Z,1.91
2022-11-08T12:48:58.143Z,1.87
2022-11-08T12:50:00.388Z,1.82
2022-11-08T12:51:02.704Z,2.05
2022-11-08T12:52:05.009Z,1.79
2022-11-08T12:53:08.999Z,1.43
2022-11-08T12:54:11.273Z,1.66
2022-11-08T12:55:14.083Z,1.81
2022-11-08T12:56:16.316Z,2.21
2022-11-08T12:57:18.517Z,1.73
2022-11-08T12:58:21.002Z,2.26
2022-11-08T12:59:23.381Z,1.95
2022-11-08T13:00:30.562Z,1.84
2022-11-08T13:01:33.110Z,1.82
2022-11-08T13:02:35.969Z,1.53
2022-11-08T13:03:38.219Z,1.78
2022-11-08T13:04:40.547Z,1.67
2022-11-08T13:05:43.172Z,1.72
2022-11-08T13:06:45.577Z,1.57
2022-11-08T13:07:47.809Z,1.85
2022-11-08T13:08:50.050Z,1.77
2022-11-08T13:09:52.783Z,1.57
2022-11-08T13:10:55.171Z,1.52
2022-11-08T13:12:04.605Z,1.72
2022-11-08T13:13:06.907Z,1.85
2022-11-08T13:14:09.136Z,1.83
2022-11-08T13:15:11.525Z,1.82
2022-11-08T13:16:13.775Z,1.94
2022-11-08T13:17:15.989Z,1.89
2022-11-08T13:18:18.426Z,1.70
2022-11-08T13:19:20.873Z,1.88
2022-11-08T13:20:23.151Z,1.73
2022-11-08T13:21:25.488Z,1.66
2022-11-08T13:22:27.751Z,1.75
2022-11-08T13:23:30.286Z,1.69
2022-11-08T13:24:43.998Z,1.58
2022-11-08T13:25:36.888Z,1.69
2022-11-08T13:26:39.396Z,1.86
2022-11-08T13:27:44.665Z,2.08
2022-11-08T13:28:47.058Z,2.18
2022-11-08T13:29:49.513Z,1.77
2022-11-08T13:30:51.873Z,1.75
2022-11-08T13:31:54.143Z,1.55
2022-11-08T13:33:00.254Z,1.77
2022-11-08T13:34:13.182Z,1.83
2022-11-08T13:35:15.388Z,1.69
2022-11-08T13:36:17.579Z,1.57
2022-11-08T13:37:19.825Z,1.81
2022-11-08T13:38:22.164Z,1.78
2022-11-08T13:39:27.196Z,1.82
2022-11-08T13:40:29.424Z,2.06
2022-11-08T13:41:31.666Z,1.63
2022-11-08T13:42:34.315Z,1.50
2022-11-08T13:43:36.608Z,1.90
2022-11-08T13:44:38.818Z,1.87
2022-11-08T13:45:41.039Z,1.65
2022-11-08T13:46:43.477Z,1.79
2022-11-08T13:47:46.111Z,2.07
2022-11-08T13:48:48.333Z,1.63
2022-11-08T13:49:50.507Z,1.66
2022-11-08T13:50:52.759Z,1.85
2022-11-08T13:51:55.329Z,1.94
2022-11-08T13:52:57.845Z,1.67
2022-11-08T13:54:00.324Z,1.88
2022-11-08T13:55:02.870Z,1.78
2022-11-08T13:56:05.347Z,1.42
2022-11-08T13:57:07.849Z,1.84
2022-11-08T13:58:10.422Z,1.45
2022-11-08T13:59:12.925Z,1.82
2022-11-08T14:00:15.476Z,1.72
2022-11-08T14:01:18.027Z,1.83
2022-11-08T14:02:20.555Z,1.48
2022-11-08T14:03:24.993Z,2.11
2022-11-08T14:04:27.430Z,1.94
2022-11-08T14:05:29.908Z,1.81
2022-11-08T14:06:32.408Z,1.61
2022-11-08T14:07:34.655Z,1.52
2022-11-08T14:08:37.175Z,1.69
2022-11-08T14:09:39.396Z,1.59
2022-11-08T14:10:41.629Z,1.76
2022-11-08T14:11:43.872Z,1.54
2022-11-08T14:12:46.092Z,1.60
2022-11-08T14:13:48.596Z,1.57
2022-11-08T14:14:50.822Z,1.63
2022-11-08T14:15:53.049Z,1.58
2022-11-08T14:16:55.467Z,1.50
2022-11-08T14:17:57.935Z,1.67
2022-11-08T14:19:00.442Z,2.08
2022-11-08T14:20:02.931Z,1.77
2022-11-08T14:21:05.495Z,1.69
2022-11-08T14:22:07.931Z,1.78
2022-11-08T14:23:10.688Z,1.87
2022-11-08T14:24:13.040Z,1.79
2022-11-08T14:25:15.430Z,1.62
2022-11-08T14:26:17.982Z,1.68
2022-11-08T14:27:20.225Z,1.77
2022-11-08T14:28:22.584Z,1.61
2022-11-08T14:29:25.170Z,1.79
2022-11-08T14:30:27.368Z,1.54
2022-11-08T14:31:29.640Z,1.62
2022-11-08T14:32:31.950Z,1.89
2022-11-08T14:33:34.312Z,1.65